sensor_id;sensor_type;location;lat;lon;timestamp;P1;durP1;ratioP1;P2;durP2;ratioP2
38379;SDS011;38377;47.418;18.882;2022-12-18T00:01:50;45.50;;;22.37;;
38379;SDS011;38377;47.418;18.882;2022-12-18T00:04:21;41.73;;;21.00;;
38379;SDS011;38377;47.418;18.882;2022-12-18T00:06:48;47.33;;;23.13;;
38379;SDS011;38377;47.418;18.882;2022-12-18T00:09:14;48.03;;;24.10;;
38379;SDS011;38377;47.418;18.882;2022-12-18T00:11:40;45.67;;;21.47;;
38379;SDS011;38377;47.418;18.882;2022-12-18T00:14:06;44.23;;;21.77;;
38379;SDS011;38377;47.418;18.882;2022-12-18T00:16:31;45.03;;;21.73;;
38379;SDS011;38377;47.418;18.882;2022-12-18T00:19:00;48.33;;;23.07;;
38379;SDS011;38377;47.418;18.882;2022-12-18T00:21:27;46.63;;;22.00;;
38379;SDS011;38377;47.418;18.882;2022-12-18T00:23:54;47.23;;;21.77;;
38379;SDS011;38377;47.418;18.882;2022-12-18T00:26:21;46.93;;;23.20;;
38379;SDS011;38377;47.418;18.882;2022-12-18T00:28:48;45.80;;;21.73;;
38379;SDS011;38377;47.418;18.882;2022-12-18T00:31:16;50.50;;;24.00;;
38379;SDS011;38377;47.418;18.882;2022-12-18T00:33:44;49.87;;;22.43;;
38379;SDS011;38377;47.418;18.882;2022-12-18T00:36:11;48.27;;;22.37;;
38379;SDS011;38377;47.418;18.882;2022-12-18T00:38:39;47.77;;;22.90;;
38379;SDS011;38377;47.418;18.882;2022-12-18T00:41:05;44.80;;;22.67;;
38379;SDS011;38377;47.418;18.882;2022-12-18T00:43:32;49.10;;;25.57;;
38379;SDS011;38377;47.418;18.882;2022-12-18T00:45:58;46.77;;;21.10;;
38379;SDS011;38377;47.418;18.882;2022-12-18T00:48:24;52.90;;;23.83;;
38379;SDS011;38377;47.418;18.882;2022-12-18T00:50:50;47.10;;;24.60;;
38379;SDS011;38377;47.418;18.882;2022-12-18T00:53:16;48.80;;;23.53;;
38379;SDS011;38377;47.418;18.882;2022-12-18T00:55:42;51.70;;;23.80;;
38379;SDS011;38377;47.418;18.882;2022-12-18T00:58:09;45.67;;;22.70;;
38379;SDS011;38377;47.418;18.882;2022-12-18T01:00:36;52.03;;;24.23;;
38379;SDS011;38377;47.418;18.882;2022-12-18T01:03:03;51.37;;;22.43;;
38379;SDS011;38377;47.418;18.882;2022-12-18T01:05:29;54.33;;;23.87;;
38379;SDS011;38377;47.418;18.882;2022-12-18T01:07:55;47.87;;;21.57;;
38379;SDS011;38377;47.418;18.882;2022-12-18T01:10:22;45.37;;;22.87;;
38379;SDS011;38377;47.418;18.882;2022-12-18T01:12:48;48.77;;;23.10;;
38379;SDS011;38377;47.418;18.882;2022-12-18T01:15:14;47.97;;;22.37;;
38379;SDS011;38377;47.418;18.882;2022-12-18T01:17:40;50.50;;;23.43;;
38379;SDS011;38377;47.418;18.882;2022-12-18T01:20:06;49.43;;;24.43;;
38379;SDS011;38377;47.418;18.882;2022-12-18T01:22:33;46.87;;;22.67;;
38379;SDS011;38377;47.418;18.882;2022-12-18T01:24:59;49.60;;;23.37;;
38379;SDS011;38377;47.418;18.882;2022-12-18T01:27:25;48.03;;;22.40;;
38379;SDS011;38377;47.418;18.882;2022-12-18T01:29:51;48.37;;;23.27;;
38379;SDS011;38377;47.418;18.882;2022-12-18T01:32:17;50.63;;;23.43;;
38379;SDS011;38377;47.418;18.882;2022-12-18T01:34:42;55.93;;;25.80;;
38379;SDS011;38377;47.418;18.882;2022-12-18T01:37:08;50.17;;;23.50;;
38379;SDS011;38377;47.418;18.882;2022-12-18T01:39:34;54.07;;;24.70;;
38379;SDS011;38377;47.418;18.882;2022-12-18T01:42:00;46.97;;;23.57;;
38379;SDS011;38377;47.418;18.882;2022-12-18T01:50:03;48.60;;;23.30;;
38379;SDS011;38377;47.418;18.882;2022-12-18T01:52:51;51.70;;;23.37;;
38379;SDS011;38377;47.418;18.882;2022-12-18T01:55:20;47.83;;;23.38;;
38379;SDS011;38377;47.418;18.882;2022-12-18T01:57:51;49.13;;;23.37;;
38379;SDS011;38377;47.418;18.882;2022-12-18T02:00:19;50.33;;;23.97;;
38379;SDS011;38377;47.418;18.882;2022-12-18T02:02:47;47.70;;;23.97;;
38379;SDS011;38377;47.418;18.882;2022-12-18T02:05:14;52.70;;;26.17;;
38379;SDS011;38377;47.418;18.882;2022-12-18T02:10:15;52.57;;;24.87;;
38379;SDS011;38377;47.418;18.882;2022-12-18T02:18:53;43.10;;;22.47;;
38379;SDS011;38377;47.418;18.882;2022-12-18T02:26:59;51.37;;;22.97;;
38379;SDS011;38377;47.418;18.882;2022-12-18T02:29:37;48.55;;;23.15;;
38379;SDS011;38377;47.418;18.882;2022-12-18T02:32:08;43.83;;;22.53;;
38379;SDS011;38377;47.418;18.882;2022-12-18T02:34:39;47.03;;;22.93;;
38379;SDS011;38377;47.418;18.882;2022-12-18T02:37:06;50.50;;;23.43;;
38379;SDS011;38377;47.418;18.882;2022-12-18T02:39:38;51.28;;;23.83;;
38379;SDS011;38377;47.418;18.882;2022-12-18T02:42:07;44.93;;;21.60;;
38379;SDS011;38377;47.418;18.882;2022-12-18T02:44:35;44.73;;;23.27;;
38379;SDS011;38377;47.418;18.882;2022-12-18T02:47:09;48.40;;;23.90;;
38379;SDS011;38377;47.418;18.882;2022-12-18T03:03:51;51.70;;;24.07;;
38379;SDS011;38377;47.418;18.882;2022-12-18T03:06:58;46.03;;;23.67;;
38379;SDS011;38377;47.418;18.882;2022-12-18T03:09:21;52.07;;;24.30;;
38379;SDS011;38377;47.418;18.882;2022-12-18T03:11:54;45.00;;;22.03;;
38379;SDS011;38377;47.418;18.882;2022-12-18T03:14:42;46.07;;;23.13;;
38379;SDS011;38377;47.418;18.882;2022-12-18T03:17:10;45.57;;;22.10;;
38379;SDS011;38377;47.418;18.882;2022-12-18T03:19:40;48.80;;;23.35;;
38379;SDS011;38377;47.418;18.882;2022-12-18T03:22:08;45.77;;;21.97;;
38379;SDS011;38377;47.418;18.882;2022-12-18T03:24:35;47.80;;;24.13;;
38379;SDS011;38377;47.418;18.882;2022-12-18T03:27:05;45.07;;;22.20;;
38379;SDS011;38377;47.418;18.882;2022-12-18T03:29:38;48.28;;;23.58;;
38379;SDS011;38377;47.418;18.882;2022-12-18T03:32:11;43.47;;;21.73;;
38379;SDS011;38377;47.418;18.882;2022-12-18T03:34:42;46.50;;;23.37;;
38379;SDS011;38377;47.418;18.882;2022-12-18T03:37:12;52.03;;;23.48;;
38379;SDS011;38377;47.418;18.882;2022-12-18T03:39:38;45.07;;;22.23;;
38379;SDS011;38377;47.418;18.882;2022-12-18T03:42:08;45.47;;;20.77;;
38379;SDS011;38377;47.418;18.882;2022-12-18T03:44:44;46.03;;;22.63;;
38379;SDS011;38377;47.418;18.882;2022-12-18T03:47:29;52.10;;;23.30;;
38379;SDS011;38377;47.418;18.882;2022-12-18T03:52:49;50.17;;;21.83;;
38379;SDS011;38377;47.418;18.882;2022-12-18T03:55:30;48.10;;;20.87;;
38379;SDS011;38377;47.418;18.882;2022-12-18T03:57:59;44.27;;;21.47;;
38379;SDS011;38377;47.418;18.882;2022-12-18T04:00:27;44.63;;;21.60;;
38379;SDS011;38377;47.418;18.882;2022-12-18T04:02:55;46.43;;;23.43;;
38379;SDS011;38377;47.418;18.882;2022-12-18T04:05:24;45.17;;;22.47;;
38379;SDS011;38377;47.418;18.882;2022-12-18T04:07:51;47.07;;;22.20;;
38379;SDS011;38377;47.418;18.882;2022-12-18T04:10:18;45.47;;;22.23;;
38379;SDS011;38377;47.418;18.882;2022-12-18T04:12:44;47.27;;;22.40;;
38379;SDS011;38377;47.418;18.882;2022-12-18T04:15:10;46.80;;;21.70;;
38379;SDS011;38377;47.418;18.882;2022-12-18T04:17:38;44.50;;;21.33;;
38379;SDS011;38377;47.418;18.882;2022-12-18T04:20:04;44.40;;;20.90;;
38379;SDS011;38377;47.418;18.882;2022-12-18T04:22:30;43.43;;;20.50;;
38379;SDS011;38377;47.418;18.882;2022-12-18T04:24:56;47.63;;;20.70;;
38379;SDS011;38377;47.418;18.882;2022-12-18T04:27:21;38.30;;;20.03;;
38379;SDS011;38377;47.418;18.882;2022-12-18T04:29:47;43.20;;;21.43;;
38379;SDS011;38377;47.418;18.882;2022-12-18T04:32:13;44.40;;;21.97;;
38379;SDS011;38377;47.418;18.882;2022-12-18T04:34:38;45.93;;;21.17;;
38379;SDS011;38377;47.418;18.882;2022-12-18T04:37:04;43.00;;;21.30;;
38379;SDS011;38377;47.418;18.882;2022-12-18T04:39:30;43.73;;;20.60;;
38379;SDS011;38377;47.418;18.882;2022-12-18T04:41:55;44.93;;;21.00;;
38379;SDS011;38377;47.418;18.882;2022-12-18T04:44:21;42.90;;;20.47;;
38379;SDS011;38377;47.418;18.882;2022-12-18T04:46:47;43.77;;;21.07;;
38379;SDS011;38377;47.418;18.882;2022-12-18T04:49:12;38.43;;;19.27;;
38379;SDS011;38377;47.418;18.882;2022-12-18T04:51:38;40.67;;;20.00;;
38379;SDS011;38377;47.418;18.882;2022-12-18T04:54:04;40.60;;;19.57;;
38379;SDS011;38377;47.418;18.882;2022-12-18T04:56:30;44.40;;;20.90;;
38379;SDS011;38377;47.418;18.882;2022-12-18T04:58:57;43.07;;;19.87;;
38379;SDS011;38377;47.418;18.882;2022-12-18T05:01:22;41.17;;;20.20;;
38379;SDS011;38377;47.418;18.882;2022-12-18T05:03:48;41.10;;;19.33;;
38379;SDS011;38377;47.418;18.882;2022-12-18T05:06:15;40.07;;;18.83;;
38379;SDS011;38377;47.418;18.882;2022-12-18T05:08:41;43.63;;;20.77;;
38379;SDS011;38377;47.418;18.882;2022-12-18T05:11:08;43.33;;;21.40;;
38379;SDS011;38377;47.418;18.882;2022-12-18T05:13:37;41.58;;;19.63;;
38379;SDS011;38377;47.418;18.882;2022-12-18T05:16:03;41.60;;;20.10;;
38379;SDS011;38377;47.418;18.882;2022-12-18T05:18:30;43.63;;;21.80;;
38379;SDS011;38377;47.418;18.882;2022-12-18T05:20:56;44.20;;;20.93;;
38379;SDS011;38377;47.418;18.882;2022-12-18T05:23:22;45.73;;;23.53;;
38379;SDS011;38377;47.418;18.882;2022-12-18T05:25:53;48.13;;;23.00;;
38379;SDS011;38377;47.418;18.882;2022-12-18T05:28:23;47.10;;;23.40;;
38379;SDS011;38377;47.418;18.882;2022-12-18T05:30:50;48.87;;;22.50;;
38379;SDS011;38377;47.418;18.882;2022-12-18T05:33:17;50.87;;;22.97;;
38379;SDS011;38377;47.418;18.882;2022-12-18T05:35:43;47.00;;;22.60;;
38379;SDS011;38377;47.418;18.882;2022-12-18T05:38:10;48.50;;;23.37;;
38379;SDS011;38377;47.418;18.882;2022-12-18T05:40:35;45.63;;;22.23;;
38379;SDS011;38377;47.418;18.882;2022-12-18T05:43:04;46.67;;;23.63;;
38379;SDS011;38377;47.418;18.882;2022-12-18T05:45:30;49.87;;;23.70;;
38379;SDS011;38377;47.418;18.882;2022-12-18T05:47:56;48.10;;;23.57;;
38379;SDS011;38377;47.418;18.882;2022-12-18T05:50:21;47.17;;;22.80;;
38379;SDS011;38377;47.418;18.882;2022-12-18T05:52:47;48.23;;;22.90;;
38379;SDS011;38377;47.418;18.882;2022-12-18T05:55:13;48.53;;;24.17;;
38379;SDS011;38377;47.418;18.882;2022-12-18T05:57:38;43.53;;;21.67;;
38379;SDS011;38377;47.418;18.882;2022-12-18T06:00:04;48.73;;;22.87;;
38379;SDS011;38377;47.418;18.882;2022-12-18T06:02:30;52.90;;;24.23;;
38379;SDS011;38377;47.418;18.882;2022-12-18T06:04:56;48.93;;;23.57;;
38379;SDS011;38377;47.418;18.882;2022-12-18T06:07:21;45.17;;;22.60;;
38379;SDS011;38377;47.418;18.882;2022-12-18T06:09:47;50.70;;;23.40;;
38379;SDS011;38377;47.418;18.882;2022-12-18T06:12:12;51.17;;;23.63;;
38379;SDS011;38377;47.418;18.882;2022-12-18T06:14:38;50.57;;;24.60;;
38379;SDS011;38377;47.418;18.882;2022-12-18T06:17:04;45.57;;;23.63;;
38379;SDS011;38377;47.418;18.882;2022-12-18T06:19:29;52.47;;;23.63;;
38379;SDS011;38377;47.418;18.882;2022-12-18T06:21:55;47.23;;;23.40;;
38379;SDS011;38377;47.418;18.882;2022-12-18T06:24:23;50.27;;;24.83;;
38379;SDS011;38377;47.418;18.882;2022-12-18T06:26:49;47.47;;;22.80;;
38379;SDS011;38377;47.418;18.882;2022-12-18T06:29:15;43.70;;;22.87;;
38379;SDS011;38377;47.418;18.882;2022-12-18T06:31:40;52.40;;;24.23;;
38379;SDS011;38377;47.418;18.882;2022-12-18T06:34:06;47.40;;;22.60;;
38379;SDS011;38377;47.418;18.882;2022-12-18T06:36:31;41.60;;;22.30;;
38379;SDS011;38377;47.418;18.882;2022-12-18T06:38:57;49.27;;;23.30;;
38379;SDS011;38377;47.418;18.882;2022-12-18T06:41:23;44.33;;;22.83;;
38379;SDS011;38377;47.418;18.882;2022-12-18T06:43:49;55.73;;;26.27;;
38379;SDS011;38377;47.418;18.882;2022-12-18T06:46:15;44.10;;;22.90;;
38379;SDS011;38377;47.418;18.882;2022-12-18T06:48:41;51.63;;;23.00;;
38379;SDS011;38377;47.418;18.882;2022-12-18T06:51:07;44.50;;;23.20;;
38379;SDS011;38377;47.418;18.882;2022-12-18T06:53:33;52.13;;;24.20;;
38379;SDS011;38377;47.418;18.882;2022-12-18T06:55:59;54.47;;;25.20;;
38379;SDS011;38377;47.418;18.882;2022-12-18T06:58:29;54.05;;;26.08;;
38379;SDS011;38377;47.418;18.882;2022-12-18T07:01:01;57.07;;;27.93;;
38379;SDS011;38377;47.418;18.882;2022-12-18T07:03:28;53.53;;;26.43;;
38379;SDS011;38377;47.418;18.882;2022-12-18T07:05:54;46.83;;;25.00;;
38379;SDS011;38377;47.418;18.882;2022-12-18T07:08:20;49.50;;;25.33;;
38379;SDS011;38377;47.418;18.882;2022-12-18T07:10:46;57.10;;;29.20;;
38379;SDS011;38377;47.418;18.882;2022-12-18T07:13:14;52.47;;;26.73;;
38379;SDS011;38377;47.418;18.882;2022-12-18T07:15:40;50.97;;;25.97;;
38379;SDS011;38377;47.418;18.882;2022-12-18T07:18:06;44.77;;;22.60;;
38379;SDS011;38377;47.418;18.882;2022-12-18T07:20:32;49.33;;;23.57;;
38379;SDS011;38377;47.418;18.882;2022-12-18T07:22:57;44.77;;;23.47;;
38379;SDS011;38377;47.418;18.882;2022-12-18T07:25:23;50.40;;;25.27;;
38379;SDS011;38377;47.418;18.882;2022-12-18T07:27:48;49.57;;;24.73;;
38379;SDS011;38377;47.418;18.882;2022-12-18T07:30:14;43.67;;;22.77;;
38379;SDS011;38377;47.418;18.882;2022-12-18T07:32:40;47.17;;;24.10;;
38379;SDS011;38377;47.418;18.882;2022-12-18T07:35:06;46.67;;;22.47;;
38379;SDS011;38377;47.418;18.882;2022-12-18T07:37:31;46.40;;;24.07;;
38379;SDS011;38377;47.418;18.882;2022-12-18T07:39:57;48.60;;;24.40;;
38379;SDS011;38377;47.418;18.882;2022-12-18T07:42:23;49.53;;;24.97;;
38379;SDS011;38377;47.418;18.882;2022-12-18T07:44:58;45.27;;;22.97;;
38379;SDS011;38377;47.418;18.882;2022-12-18T07:47:25;49.10;;;24.17;;
38379;SDS011;38377;47.418;18.882;2022-12-18T07:49:50;47.00;;;23.90;;
38379;SDS011;38377;47.418;18.882;2022-12-18T07:52:16;47.40;;;24.43;;
38379;SDS011;38377;47.418;18.882;2022-12-18T07:54:42;47.20;;;24.30;;
38379;SDS011;38377;47.418;18.882;2022-12-18T07:57:07;44.90;;;23.87;;
38379;SDS011;38377;47.418;18.882;2022-12-18T07:59:33;48.13;;;24.33;;
38379;SDS011;38377;47.418;18.882;2022-12-18T08:01:59;48.37;;;24.43;;
38379;SDS011;38377;47.418;18.882;2022-12-18T08:04:25;55.80;;;26.60;;
38379;SDS011;38377;47.418;18.882;2022-12-18T08:06:50;50.13;;;25.30;;
38379;SDS011;38377;47.418;18.882;2022-12-18T08:09:16;52.60;;;25.50;;
38379;SDS011;38377;47.418;18.882;2022-12-18T08:11:42;57.37;;;26.33;;
38379;SDS011;38377;47.418;18.882;2022-12-18T08:14:08;55.50;;;27.67;;
38379;SDS011;38377;47.418;18.882;2022-12-18T08:16:34;53.43;;;26.50;;
38379;SDS011;38377;47.418;18.882;2022-12-18T08:19:00;54.93;;;27.77;;
38379;SDS011;38377;47.418;18.882;2022-12-18T08:21:27;65.33;;;34.33;;
38379;SDS011;38377;47.418;18.882;2022-12-18T08:23:55;59.70;;;30.23;;
38379;SDS011;38377;47.418;18.882;2022-12-18T08:26:24;50.00;;;26.00;;
38379;SDS011;38377;47.418;18.882;2022-12-18T08:28:51;44.47;;;22.07;;
38379;SDS011;38377;47.418;18.882;2022-12-18T08:31:18;43.83;;;23.53;;
38379;SDS011;38377;47.418;18.882;2022-12-18T08:33:44;41.83;;;21.67;;
38379;SDS011;38377;47.418;18.882;2022-12-18T08:36:12;41.97;;;21.57;;
38379;SDS011;38377;47.418;18.882;2022-12-18T08:38:38;41.33;;;20.53;;
38379;SDS011;38377;47.418;18.882;2022-12-18T08:41:10;38.10;;;20.00;;
38379;SDS011;38377;47.418;18.882;2022-12-18T08:43:37;38.80;;;20.37;;
38379;SDS011;38377;47.418;18.882;2022-12-18T08:46:22;39.53;;;18.57;;
38379;SDS011;38377;47.418;18.882;2022-12-18T08:48:50;42.37;;;21.20;;
38379;SDS011;38377;47.418;18.882;2022-12-18T08:51:17;39.50;;;21.33;;
38379;SDS011;38377;47.418;18.882;2022-12-18T08:53:43;39.33;;;21.20;;
38379;SDS011;38377;47.418;18.882;2022-12-18T08:56:10;41.63;;;20.87;;
38379;SDS011;38377;47.418;18.882;2022-12-18T08:58:37;45.37;;;23.70;;
38379;SDS011;38377;47.418;18.882;2022-12-18T09:01:03;41.83;;;22.73;;
38379;SDS011;38377;47.418;18.882;2022-12-18T09:03:30;42.37;;;21.57;;
38379;SDS011;38377;47.418;18.882;2022-12-18T09:05:56;37.23;;;21.70;;
38379;SDS011;38377;47.418;18.882;2022-12-18T09:08:22;38.53;;;21.63;;
38379;SDS011;38377;47.418;18.882;2022-12-18T09:10:49;42.30;;;23.20;;
38379;SDS011;38377;47.418;18.882;2022-12-18T09:13:15;42.03;;;22.37;;
38379;SDS011;38377;47.418;18.882;2022-12-18T09:15:42;40.83;;;21.10;;
38379;SDS011;38377;47.418;18.882;2022-12-18T09:18:10;40.07;;;20.93;;
38379;SDS011;38377;47.418;18.882;2022-12-18T09:20:37;41.67;;;20.67;;
38379;SDS011;38377;47.418;18.882;2022-12-18T09:23:04;38.43;;;19.67;;
38379;SDS011;38377;47.418;18.882;2022-12-18T09:25:30;37.93;;;18.90;;
38379;SDS011;38377;47.418;18.882;2022-12-18T09:28:01;35.23;;;18.63;;
38379;SDS011;38377;47.418;18.882;2022-12-18T09:30:28;32.50;;;17.42;;
38379;SDS011;38377;47.418;18.882;2022-12-18T09:32:54;28.90;;;16.07;;
38379;SDS011;38377;47.418;18.882;2022-12-18T09:35:20;32.07;;;17.53;;
38379;SDS011;38377;47.418;18.882;2022-12-18T09:37:46;28.73;;;17.23;;
38379;SDS011;38377;47.418;18.882;2022-12-18T09:40:20;36.50;;;19.87;;
38379;SDS011;38377;47.418;18.882;2022-12-18T09:42:52;34.07;;;18.53;;
38379;SDS011;38377;47.418;18.882;2022-12-18T09:45:22;35.43;;;18.70;;
38379;SDS011;38377;47.418;18.882;2022-12-18T09:47:49;33.33;;;19.60;;
38379;SDS011;38377;47.418;18.882;2022-12-18T09:50:25;39.23;;;20.40;;
38379;SDS011;38377;47.418;18.882;2022-12-18T09:52:56;32.17;;;18.97;;
38379;SDS011;38377;47.418;18.882;2022-12-18T09:58:24;31.90;;;16.93;;
38379;SDS011;38377;47.418;18.882;2022-12-18T10:01:11;37.43;;;20.60;;
38379;SDS011;38377;47.418;18.882;2022-12-18T10:03:43;37.53;;;20.97;;
38379;SDS011;38377;47.418;18.882;2022-12-18T10:06:11;37.10;;;20.77;;
38379;SDS011;38377;47.418;18.882;2022-12-18T10:21:41;33.63;;;18.27;;
38379;SDS011;38377;47.418;18.882;2022-12-18T10:24:37;34.43;;;18.57;;
38379;SDS011;38377;47.418;18.882;2022-12-18T10:27:14;37.37;;;19.73;;
38379;SDS011;38377;47.418;18.882;2022-12-18T10:29:42;37.20;;;19.17;;
38379;SDS011;38377;47.418;18.882;2022-12-18T10:32:13;38.13;;;20.13;;
38379;SDS011;38377;47.418;18.882;2022-12-18T10:34:45;40.27;;;21.40;;
38379;SDS011;38377;47.418;18.882;2022-12-18T10:37:14;35.87;;;19.67;;
38379;SDS011;38377;47.418;18.882;2022-12-18T10:39:43;33.43;;;20.67;;
38379;SDS011;38377;47.418;18.882;2022-12-18T10:42:14;36.17;;;20.10;;
38379;SDS011;38377;47.418;18.882;2022-12-18T10:44:43;35.20;;;19.70;;
38379;SDS011;38377;47.418;18.882;2022-12-18T10:47:11;36.97;;;19.03;;
38379;SDS011;38377;47.418;18.882;2022-12-18T10:49:42;31.70;;;17.27;;
38379;SDS011;38377;47.418;18.882;2022-12-18T10:52:18;33.23;;;19.70;;
38379;SDS011;38377;47.418;18.882;2022-12-18T10:54:51;30.43;;;16.63;;
38379;SDS011;38377;47.418;18.882;2022-12-18T10:59:55;31.77;;;17.40;;
38379;SDS011;38377;47.418;18.882;2022-12-18T11:02:33;29.33;;;16.30;;
38379;SDS011;38377;47.418;18.882;2022-12-18T11:05:00;33.73;;;18.33;;
38379;SDS011;38377;47.418;18.882;2022-12-18T11:07:46;30.80;;;16.60;;
38379;SDS011;38377;47.418;18.882;2022-12-18T11:10:17;27.80;;;15.97;;
38379;SDS011;38377;47.418;18.882;2022-12-18T11:12:45;31.17;;;16.92;;
38379;SDS011;38377;47.418;18.882;2022-12-18T11:15:15;34.00;;;17.50;;
38379;SDS011;38377;47.418;18.882;2022-12-18T11:17:48;29.80;;;16.17;;
38379;SDS011;38377;47.418;18.882;2022-12-18T11:23:01;24.80;;;13.37;;
38379;SDS011;38377;47.418;18.882;2022-12-18T11:25:31;26.25;;;14.57;;
38379;SDS011;38377;47.418;18.882;2022-12-18T11:28:02;23.47;;;14.47;;
38379;SDS011;38377;47.418;18.882;2022-12-18T11:30:31;29.23;;;17.17;;
38379;SDS011;38377;47.418;18.882;2022-12-18T11:38:06;24.20;;;13.40;;
38379;SDS011;38377;47.418;18.882;2022-12-18T11:44:14;31.93;;;15.10;;
38379;SDS011;38377;47.418;18.882;2022-12-18T11:46:55;28.43;;;15.40;;
38379;SDS011;38377;47.418;18.882;2022-12-18T11:52:02;25.57;;;15.07;;
38379;SDS011;38377;47.418;18.882;2022-12-18T11:54:34;25.47;;;14.70;;
38379;SDS011;38377;47.418;18.882;2022-12-18T11:57:20;26.70;;;14.23;;
38379;SDS011;38377;47.418;18.882;2022-12-18T12:02:42;29.37;;;16.67;;
38379;SDS011;38377;47.418;18.882;2022-12-18T12:08:35;28.77;;;15.23;;
38379;SDS011;38377;47.418;18.882;2022-12-18T12:25:33;30.25;;;16.30;;
38379;SDS011;38377;47.418;18.882;2022-12-18T12:30:15;26.53;;;15.00;;
38379;SDS011;38377;47.418;18.882;2022-12-18T12:38:43;26.97;;;15.00;;
38379;SDS011;38377;47.418;18.882;2022-12-18T12:41:16;25.03;;;14.63;;
38379;SDS011;38377;47.418;18.882;2022-12-18T12:44:08;25.83;;;14.73;;
38379;SDS011;38377;47.418;18.882;2022-12-18T12:46:40;27.50;;;16.10;;
38379;SDS011;38377;47.418;18.882;2022-12-18T12:49:09;30.17;;;15.40;;
38379;SDS011;38377;47.418;18.882;2022-12-18T12:51:43;23.43;;;14.73;;
38379;SDS011;38377;47.418;18.882;2022-12-18T12:54:26;26.05;;;15.70;;
38379;SDS011;38377;47.418;18.882;2022-12-18T12:56:55;25.13;;;14.63;;
38379;SDS011;38377;47.418;18.882;2022-12-18T13:02:22;24.47;;;13.90;;
38379;SDS011;38377;47.418;18.882;2022-12-18T13:07:55;25.03;;;14.27;;
38379;SDS011;38377;47.418;18.882;2022-12-18T13:10:43;26.03;;;14.10;;
38379;SDS011;38377;47.418;18.882;2022-12-18T13:13:12;25.70;;;13.20;;
38379;SDS011;38377;47.418;18.882;2022-12-18T13:15:47;30.97;;;14.87;;
38379;SDS011;38377;47.418;18.882;2022-12-18T13:18:19;24.20;;;13.90;;
38379;SDS011;38377;47.418;18.882;2022-12-18T13:20:49;23.40;;;14.03;;
38379;SDS011;38377;47.418;18.882;2022-12-18T13:23:33;23.37;;;14.07;;
38379;SDS011;38377;47.418;18.882;2022-12-18T13:31:01;33.73;;;17.90;;
38379;SDS011;38377;47.418;18.882;2022-12-18T13:36:00;29.57;;;16.60;;
38379;SDS011;38377;47.418;18.882;2022-12-18T13:43:49;32.43;;;17.37;;
38379;SDS011;38377;47.418;18.882;2022-12-18T13:46:24;33.07;;;18.20;;
38379;SDS011;38377;47.418;18.882;2022-12-18T13:49:15;32.00;;;18.53;;
38379;SDS011;38377;47.418;18.882;2022-12-18T13:51:54;30.00;;;17.27;;
38379;SDS011;38377;47.418;18.882;2022-12-18T13:56:53;33.00;;;16.87;;
38379;SDS011;38377;47.418;18.882;2022-12-18T13:59:20;35.80;;;19.57;;
38379;SDS011;38377;47.418;18.882;2022-12-18T14:06:49;35.97;;;19.87;;
38379;SDS011;38377;47.418;18.882;2022-12-18T14:09:36;38.93;;;20.70;;
38379;SDS011;38377;47.418;18.882;2022-12-18T14:12:06;36.55;;;20.77;;
38379;SDS011;38377;47.418;18.882;2022-12-18T14:14:58;37.83;;;20.40;;
38379;SDS011;38377;47.418;18.882;2022-12-18T14:17:23;35.97;;;19.23;;
38379;SDS011;38377;47.418;18.882;2022-12-18T14:19:50;33.87;;;18.60;;
38379;SDS011;38377;47.418;18.882;2022-12-18T14:22:20;37.07;;;20.07;;
38379;SDS011;38377;47.418;18.882;2022-12-18T14:30:36;36.38;;;18.27;;
38379;SDS011;38377;47.418;18.882;2022-12-18T14:33:10;29.50;;;17.13;;
38379;SDS011;38377;47.418;18.882;2022-12-18T14:35:41;32.27;;;18.47;;
38379;SDS011;38377;47.418;18.882;2022-12-18T14:38:21;42.37;;;21.07;;
38379;SDS011;38377;47.418;18.882;2022-12-18T14:40:47;34.38;;;20.83;;
38379;SDS011;38377;47.418;18.882;2022-12-18T14:43:16;39.83;;;23.03;;
38379;SDS011;38377;47.418;18.882;2022-12-18T14:45:43;42.70;;;23.77;;
38379;SDS011;38377;47.418;18.882;2022-12-18T14:48:14;53.90;;;29.63;;
38379;SDS011;38377;47.418;18.882;2022-12-18T14:50:43;50.37;;;27.97;;
38379;SDS011;38377;47.418;18.882;2022-12-18T14:56:20;52.13;;;28.07;;
38379;SDS011;38377;47.418;18.882;2022-12-18T14:58:52;47.43;;;27.17;;
38379;SDS011;38377;47.418;18.882;2022-12-18T15:01:30;47.20;;;25.40;;
38379;SDS011;38377;47.418;18.882;2022-12-18T15:04:04;46.47;;;26.87;;
38379;SDS011;38377;47.418;18.882;2022-12-18T15:06:48;55.37;;;27.23;;
38379;SDS011;38377;47.418;18.882;2022-12-18T15:09:21;55.40;;;29.60;;
38379;SDS011;38377;47.418;18.882;2022-12-18T15:11:49;63.60;;;29.17;;
38379;SDS011;38377;47.418;18.882;2022-12-18T15:16:54;79.27;;;43.70;;
38379;SDS011;38377;47.418;18.882;2022-12-18T15:19:21;84.47;;;43.53;;
38379;SDS011;38377;47.418;18.882;2022-12-18T15:24:18;83.47;;;43.30;;
38379;SDS011;38377;47.418;18.882;2022-12-18T15:26:48;87.35;;;47.22;;
38379;SDS011;38377;47.418;18.882;2022-12-18T15:29:20;74.27;;;37.30;;
38379;SDS011;38377;47.418;18.882;2022-12-18T15:32:15;65.20;;;35.63;;
38379;SDS011;38377;47.418;18.882;2022-12-18T15:34:44;66.00;;;36.13;;
38379;SDS011;38377;47.418;18.882;2022-12-18T15:37:10;69.60;;;36.53;;
38379;SDS011;38377;47.418;18.882;2022-12-18T15:39:36;74.80;;;39.30;;
38379;SDS011;38377;47.418;18.882;2022-12-18T15:42:01;66.67;;;36.73;;
38379;SDS011;38377;47.418;18.882;2022-12-18T15:44:45;69.80;;;35.97;;
38379;SDS011;38377;47.418;18.882;2022-12-18T15:47:12;64.47;;;34.10;;
38379;SDS011;38377;47.418;18.882;2022-12-18T15:49:38;67.13;;;33.23;;
38379;SDS011;38377;47.418;18.882;2022-12-18T15:52:04;67.33;;;33.07;;
38379;SDS011;38377;47.418;18.882;2022-12-18T15:54:30;55.10;;;29.90;;
38379;SDS011;38377;47.418;18.882;2022-12-18T15:57:15;64.60;;;30.17;;
38379;SDS011;38377;47.418;18.882;2022-12-18T15:59:54;62.33;;;33.23;;
38379;SDS011;38377;47.418;18.882;2022-12-18T16:02:23;61.30;;;33.83;;
38379;SDS011;38377;47.418;18.882;2022-12-18T16:04:50;55.67;;;30.90;;
38379;SDS011;38377;47.418;18.882;2022-12-18T16:07:17;55.87;;;29.50;;
38379;SDS011;38377;47.418;18.882;2022-12-18T16:09:43;53.80;;;29.00;;
38379;SDS011;38377;47.418;18.882;2022-12-18T16:12:18;55.60;;;29.93;;
38379;SDS011;38377;47.418;18.882;2022-12-18T16:14:46;54.20;;;30.10;;
38379;SDS011;38377;47.418;18.882;2022-12-18T16:17:13;55.80;;;31.10;;
38379;SDS011;38377;47.418;18.882;2022-12-18T16:19:39;53.97;;;29.70;;
38379;SDS011;38377;47.418;18.882;2022-12-18T16:22:05;58.57;;;31.40;;
38379;SDS011;38377;47.418;18.882;2022-12-18T16:24:32;61.77;;;32.87;;
38379;SDS011;38377;47.418;18.882;2022-12-18T16:27:00;60.00;;;31.40;;
38379;SDS011;38377;47.418;18.882;2022-12-18T16:29:27;61.60;;;31.80;;
38379;SDS011;38377;47.418;18.882;2022-12-18T16:31:54;59.83;;;31.60;;
38379;SDS011;38377;47.418;18.882;2022-12-18T16:34:22;52.87;;;31.17;;
38379;SDS011;38377;47.418;18.882;2022-12-18T16:36:55;57.27;;;31.40;;
38379;SDS011;38377;47.418;18.882;2022-12-18T16:39:26;59.42;;;31.30;;